createdAt,value
2022-12-07T00:01:46.437Z,5.61
2022-12-07T00:04:16.421Z,5.56
2022-12-07T00:06:46.258Z,5.53
2022-12-07T00:09:16.543Z,5.56
2022-12-07T00:11:47.611Z,5.60
2022-12-07T00:14:17.191Z,5.63
2022-12-07T00:16:46.035Z,5.67
2022-12-07T00:19:15.130Z,5.71
2022-12-07T00:21:43.833Z,5.75
2022-12-07T00:24:13.506Z,5.76
2022-12-07T00:26:43.189Z,5.78
2022-12-07T00:29:16.950Z,5.81
2022-12-07T00:31:45.485Z,5.81
2022-12-07T00:34:16.036Z,5.84
2022-12-07T00:36:44.266Z,5.84
2022-12-07T00:39:12.397Z,5.74
2022-12-07T00:41:40.706Z,5.70
2022-12-07T00:44:08.614Z,5.70
2022-12-07T00:46:38.108Z,5.73
2022-12-07T00:49:06.070Z,5.73
2022-12-07T00:51:34.220Z,5.74
2022-12-07T00:54:02.145Z,5.74
2022-12-07T00:56:31.361Z,5.72
2022-12-07T00:59:00.496Z,5.69
2022-12-07T01:01:31.256Z,5.67
2022-12-07T01:04:02.021Z,5.66
2022-12-07T01:06:30.906Z,5.64
2022-12-07T01:08:58.925Z,5.51
2022-12-07T01:11:29.456Z,5.43
2022-12-07T01:13:59.580Z,5.41
2022-12-07T01:16:29.836Z,5.39
2022-12-07T01:18:59.920Z,5.39
2022-12-07T01:21:30.183Z,5.42
2022-12-07T01:23:59.317Z,5.42
2022-12-07T01:26:28.276Z,5.37
2022-12-07T01:28:56.732Z,5.21
2022-12-07T01:31:26.968Z,5.21
2022-12-07T01:33:56.320Z,5.22
2022-12-07T01:36:27.507Z,5.14
2022-12-07T01:38:57.862Z,5.11
2022-12-07T01:41:27.227Z,5.12
2022-12-07T01:44:19.589Z,5.18
2022-12-07T01:46:48.860Z,5.18
2022-12-07T01:49:21.103Z,5.12
2022-12-07T01:51:51.391Z,5.14
2022-12-07T01:54:19.910Z,5.16
2022-12-07T01:56:51.408Z,5.19
2022-12-07T01:59:20.286Z,5.24
2022-12-07T02:01:48.650Z,5.27
2022-12-07T02:04:17.218Z,5.28
2022-12-07T02:06:46.638Z,5.29
2022-12-07T02:09:16.225Z,5.29
2022-12-07T02:11:44.414Z,5.30
2022-12-07T02:14:12.417Z,5.32
2022-12-07T02:16:48.167Z,5.33
2022-12-07T02:19:40.341Z,5.26
2022-12-07T02:22:32.172Z,5.23
2022-12-07T02:25:08.384Z,5.18
2022-12-07T02:27:45.332Z,5.14
2022-12-07T02:30:15.520Z,5.09
2022-12-07T02:32:48.320Z,4.94
2022-12-07T02:35:21.187Z,4.99
2022-12-07T02:37:57.895Z,4.81
2022-12-07T02:40:30.256Z,4.77
2022-12-07T02:43:03.413Z,4.72
2022-12-07T02:45:33.349Z,4.61
2022-12-07T02:48:02.271Z,4.62
2022-12-07T02:50:30.397Z,4.66
2022-12-07T02:52:58.598Z,4.70
2022-12-07T02:55:31.211Z,4.74
2022-12-07T02:58:19.042Z,4.78
2022-12-07T03:00:54.410Z,4.85
2022-12-07T03:03:22.719Z,4.89
2022-12-07T03:06:08.396Z,4.95
2022-12-07T03:08:48.022Z,4.98
2022-12-07T03:11:21.867Z,5.02
2022-12-07T03:13:53.192Z,5.08
2022-12-07T03:16:25.026Z,5.12
2022-12-07T03:18:55.825Z,5.13
2022-12-07T03:21:27.926Z,5.14
2022-12-07T03:23:59.132Z,5.12
2022-12-07T03:26:32.393Z,5.16
2022-12-07T03:29:02.794Z,5.17
2022-12-07T03:31:34.058Z,5.12
2022-12-07T03:34:08.536Z,5.08
2022-12-07T03:36:41.489Z,5.09
2022-12-07T03:39:15.865Z,5.03
2022-12-07T03:41:45.501Z,5.03
2022-12-07T03:44:14.732Z,5.04
2022-12-07T03:46:47.111Z,5.05
2022-12-07T03:49:20.666Z,5.09
2022-12-07T03:51:51.426Z,5.10
2022-12-07T03:54:21.965Z,5.06
2022-12-07T03:56:50.688Z,5.06
2022-12-07T03:59:19.612Z,5.03
2022-12-07T04:01:54.817Z,5.03
2022-12-07T04:04:23.257Z,5.01
2022-12-07T04:06:51.170Z,5.03
2022-12-07T04:09:19.790Z,5.07
2022-12-07T04:11:47.705Z,5.08
2022-12-07T04:14:21.565Z,5.08
2022-12-07T04:16:52.777Z,5.06
2022-12-07T04:19:22.303Z,5.10
2022-12-07T04:21:50.423Z,5.09
2022-12-07T04:24:18.399Z,5.02
2022-12-07T04:26:47.310Z,4.82
2022-12-07T04:29:16.012Z,4.80
2022-12-07T04:31:44.868Z,4.69
2022-12-07T04:34:15.209Z,4.70
2022-12-07T04:36:44.243Z,4.61
2022-12-07T04:39:20.772Z,4.62
2022-12-07T04:41:49.041Z,4.54
2022-12-07T04:44:17.649Z,4.55
2022-12-07T04:46:46.088Z,4.45
2022-12-07T04:49:16.149Z,4.53
2022-12-07T04:51:44.529Z,4.57
2022-12-07T04:54:12.625Z,4.60
2022-12-07T04:56:40.886Z,4.61
2022-12-07T04:59:09.257Z,4.61
2022-12-07T05:01:37.460Z,4.59
2022-12-07T05:04:05.689Z,4.58
2022-12-07T05:06:35.266Z,4.52
2022-12-07T05:09:03.236Z,4.57
2022-12-07T05:11:40.361Z,4.58
2022-12-07T05:14:11.309Z,4.57
2022-12-07T05:16:40.107Z,4.54
2022-12-07T05:19:08.818Z,4.55
2022-12-07T05:21:38.389Z,4.47
2022-12-07T05:24:07.452Z,4.42
2022-12-07T05:26:35.724Z,4.36
2022-12-07T05:29:03.761Z,4.45
2022-12-07T05:31:32.357Z,4.56
2022-12-07T05:34:00.381Z,4.66
2022-12-07T05:36:29.581Z,4.76
2022-12-07T05:38:59.049Z,4.84
2022-12-07T05:41:45.153Z,4.91
2022-12-07T05:44:13.067Z,5.02
2022-12-07T05:46:41.295Z,5.07
2022-12-07T05:49:09.197Z,5.12
2022-12-07T05:51:37.346Z,5.17
2022-12-07T05:54:06.644Z,5.19
2022-12-07T05:56:34.797Z,5.20
2022-12-07T05:59:20.567Z,5.26
2022-12-07T06:01:48.855Z,5.30
2022-12-07T06:04:16.793Z,5.34
2022-12-07T06:06:45.065Z,5.37
2022-12-07T06:09:14.752Z,5.39
2022-12-07T06:12:00.309Z,5.39
2022-12-07T06:14:28.205Z,5.41
2022-12-07T06:16:56.731Z,5.42
2022-12-07T06:19:24.695Z,5.42
2022-12-07T06:21:53.292Z,5.40
2022-12-07T06:24:23.089Z,5.36
2022-12-07T06:26:51.521Z,5.36
2022-12-07T06:29:20.111Z,5.37
2022-12-07T06:31:48.321Z,5.37
2022-12-07T06:34:18.530Z,5.38
2022-12-07T06:36:51.928Z,5.37
2022-12-07T06:39:22.141Z,5.35
2022-12-07T06:41:53.604Z,5.34
2022-12-07T06:44:22.597Z,5.30
2022-12-07T06:46:51.355Z,5.30
2022-12-07T06:49:19.737Z,5.29
2022-12-07T06:51:47.967Z,5.28
2022-12-07T06:54:16.986Z,5.25
2022-12-07T06:56:46.538Z,5.25
2022-12-07T06:59:14.683Z,5.26
2022-12-07T07:01:42.878Z,5.26
2022-12-07T07:04:10.811Z,5.25
2022-12-07T07:06:39.018Z,5.26
2022-12-07T07:09:07.036Z,5.25
2022-12-07T07:11:35.141Z,5.25
2022-12-07T07:14:04.463Z,5.23
2022-12-07T07:16:32.750Z,5.23
2022-12-07T07:19:00.952Z,5.27
2022-12-07T07:21:29.120Z,5.26
2022-12-07T07:23:57.996Z,5.29
2022-12-07T07:26:26.944Z,5.33
2022-12-07T07:28:54.889Z,5.36
2022-12-07T07:31:24.615Z,5.38
2022-12-07T07:33:52.569Z,5.39
2022-12-07T07:36:20.867Z,5.40
2022-12-07T07:38:48.727Z,5.40
2022-12-07T07:41:17.124Z,5.35
2022-12-07T07:43:45.080Z,5.39
2022-12-07T07:46:13.210Z,5.41
2022-12-07T07:48:42.434Z,5.36
2022-12-07T07:51:10.654Z,5.35
2022-12-07T07:53:38.581Z,5.36
2022-12-07T07:56:06.781Z,5.36
2022-12-07T07:58:34.673Z,5.37
2022-12-07T08:01:06.309Z,5.37
2022-12-07T08:03:34.297Z,5.39
2022-12-07T08:06:05.317Z,5.41
2022-12-07T08:08:33.702Z,5.44
2022-12-07T08:11:02.427Z,5.46
2022-12-07T08:13:31.479Z,5.45
2022-12-07T08:16:00.047Z,5.42
2022-12-07T08:18:28.055Z,5.42
2022-12-07T08:21:01.010Z,5.40
2022-12-07T08:23:37.645Z,5.41
2022-12-07T08:26:09.877Z,5.33
2022-12-07T08:28:38.080Z,5.34
2022-12-07T08:31:08.257Z,5.36
2022-12-07T08:33:36.731Z,5.41
2022-12-07T08:36:07.093Z,5.42
2022-12-07T08:38:37.506Z,5.46
2022-12-07T08:41:06.370Z,5.44
2022-12-07T08:43:34.945Z,5.47
2022-12-07T08:46:08.944Z,5.35
2022-12-07T08:48:39.822Z,5.33
2022-12-07T08:51:08.047Z,5.42
2022-12-07T08:53:37.839Z,5.39
2022-12-07T08:56:07.324Z,5.35
2022-12-07T08:58:36.312Z,5.37
2022-12-07T09:01:04.909Z,5.33
2022-12-07T09:03:32.907Z,5.39
2022-12-07T09:06:01.281Z,5.46
2022-12-07T09:08:34.892Z,5.46
2022-12-07T09:11:04.785Z,5.42
2022-12-07T09:13:32.873Z,5.44
2022-12-07T09:16:01.165Z,5.32
2022-12-07T09:18:29.214Z,5.37
2022-12-07T09:20:58.154Z,5.27
2022-12-07T09:23:26.219Z,5.18
2022-12-07T09:25:54.422Z,5.22
2022-12-07T09:28:23.704Z,5.25
2022-12-07T09:33:39.790Z,5.33
2022-12-07T09:36:08.592Z,5.33
2022-12-07T09:38:36.515Z,5.35
2022-12-07T09:41:07.868Z,5.43
2022-12-07T09:43:37.921Z,5.51
2022-12-07T09:46:06.496Z,5.58
2022-12-07T09:48:37.464Z,5.61
2022-12-07T09:51:22.510Z,5.65
2022-12-07T09:53:52.554Z,5.65
2022-12-07T09:56:22.260Z,5.63
2022-12-07T09:58:52.405Z,5.68
2022-12-07T10:01:22.742Z,5.76
2022-12-07T10:03:52.444Z,5.83
2022-12-07T10:06:21.388Z,5.86
2022-12-07T10:08:49.327Z,5.92
2022-12-07T10:11:17.561Z,5.96
2022-12-07T10:13:49.593Z,6.00
2022-12-07T10:16:37.510Z,6.11
2022-12-07T10:19:25.923Z,6.23
2022-12-07T10:22:11.936Z,6.34
2022-12-07T10:24:41.884Z,6.43
2022-12-07T10:27:20.596Z,6.47
2022-12-07T10:29:50.863Z,6.53
2022-12-07T10:32:33.814Z,6.52
2022-12-07T10:35:24.940Z,6.54
2022-12-07T10:37:53.757Z,6.26
2022-12-07T10:40:28.234Z,6.31
2022-12-07T10:43:04.584Z,6.09
2022-12-07T10:45:35.715Z,6.13
2022-12-07T10:48:15.958Z,6.15
2022-12-07T10:50:54.881Z,6.26
2022-12-07T10:53:38.392Z,6.33
2022-12-07T10:56:24.104Z,6.34
2022-12-07T10:59:03.635Z,6.27
2022-12-07T11:01:34.996Z,6.33
2022-12-07T11:04:22.094Z,6.32
2022-12-07T11:06:55.889Z,6.34
2022-12-07T11:10:07.284Z,6.31
2022-12-07T11:12:40.387Z,6.28
2022-12-07T11:15:16.053Z,6.35
2022-12-07T11:17:50.108Z,6.38
2022-12-07T11:20:32.181Z,6.43
2022-12-07T11:23:05.577Z,6.45
2022-12-07T11:25:36.772Z,6.47
2022-12-07T11:28:14.061Z,6.48
2022-12-07T11:30:47.663Z,6.49
2022-12-07T11:33:21.589Z,6.50
2022-12-07T11:36:03.167Z,6.51
2022-12-07T11:38:39.731Z,6.54
2022-12-07T11:41:17.271Z,6.59
2022-12-07T11:43:55.779Z,6.63
2022-12-07T11:46:27.057Z,6.67
2022-12-07T11:49:01.432Z,6.72
2022-12-07T11:51:33.806Z,6.77
2022-12-07T11:54:05.368Z,6.78
2022-12-07T11:56:37.884Z,6.81
2022-12-07T11:59:12.217Z,6.82
2022-12-07T12:01:53.751Z,6.83
2022-12-07T12:04:31.241Z,6.80
2022-12-07T12:09:53.581Z,6.81
2022-12-07T12:15:42.770Z,7.06
2022-12-07T12:18:38.629Z,7.24
2022-12-07T12:21:09.247Z,7.41
2022-12-07T12:23:42.865Z,7.50
2022-12-07T12:26:18.629Z,7.58
2022-12-07T12:28:54.254Z,7.57
2022-12-07T12:31:38.045Z,7.55
2022-12-07T12:34:22.017Z,7.54
2022-12-07T12:36:50.103Z,7.51
2022-12-07T12:39:21.756Z,7.38
2022-12-07T12:42:10.075Z,7.27
2022-12-07T12:44:42.827Z,7.24
2022-12-07T12:47:46.932Z,7.13
2022-12-07T12:50:20.352Z,7.05
2022-12-07T12:52:56.881Z,6.96
2022-12-07T12:55:51.291Z,6.83
2022-12-07T12:58:44.465Z,6.84
2022-12-07T13:01:46.027Z,6.76
2022-12-07T13:04:42.055Z,6.72
2022-12-07T13:07:15.502Z,6.72
2022-12-07T13:09:46.068Z,6.68
2022-12-07T13:12:18.258Z,6.64
2022-12-07T13:14:57.859Z,6.61
2022-12-07T13:17:57.813Z,6.59
2022-12-07T13:20:49.422Z,6.57
2022-12-07T13:23:22.932Z,6.53
2022-12-07T13:25:56.621Z,6.53
2022-12-07T13:28:39.922Z,6.53
2022-12-07T13:31:17.911Z,6.49
2022-12-07T13:33:47.205Z,6.47
2022-12-07T13:36:21.208Z,6.48
2022-12-07T13:38:55.039Z,6.49
2022-12-07T13:41:24.436Z,6.50
2022-12-07T13:43:57.890Z,6.52
2022-12-07T13:46:29.081Z,6.50
2022-12-07T13:48:57.886Z,6.51
2022-12-07T13:51:27.499Z,6.55
2022-12-07T13:53:57.306Z,6.56
2022-12-07T13:56:30.791Z,6.56
2022-12-07T13:59:00.545Z,6.57
2022-12-07T14:01:28.839Z,6.57
2022-12-07T14:03:57.067Z,6.59
2022-12-07T14:06:27.813Z,6.63
2022-12-07T14:09:09.805Z,6.62
2022-12-07T14:11:38.032Z,6.67
2022-12-07T14:14:07.854Z,6.68
2022-12-07T14:16:37.583Z,6.68
2022-12-07T14:19:07.873Z,6.70
2022-12-07T14:21:36.695Z,6.65
2022-12-07T14:24:12.105Z,6.65
2022-12-07T14:26:41.200Z,6.62
2022-12-07T14:29:31.354Z,6.61
2022-12-07T14:31:59.755Z,6.60
2022-12-07T14:34:27.974Z,6.58
2022-12-07T14:36:55.902Z,6.54
2022-12-07T14:39:24.060Z,6.54
2022-12-07T14:41:52.311Z,6.50
2022-12-07T14:44:24.121Z,6.48
2022-12-07T14:49:43.728Z,6.44
2022-12-07T14:55:04.487Z,6.37
2022-12-07T14:57:32.652Z,6.34
2022-12-07T15:00:00.861Z,6.36
2022-12-07T15:02:30.217Z,6.31
2022-12-07T15:04:58.560Z,6.29
2022-12-07T15:07:27.431Z,6.23
2022-12-07T15:09:55.931Z,6.19
2022-12-07T15:12:25.622Z,6.23
2022-12-07T15:14:53.822Z,6.27
2022-12-07T15:17:31.172Z,6.27
2022-12-07T15:20:01.620Z,6.25
2022-12-07T15:22:36.618Z,6.25
2022-12-07T15:25:07.426Z,6.20
2022-12-07T15:27:35.616Z,6.22
2022-12-07T15:30:05.057Z,6.16
2022-12-07T15:32:33.012Z,6.17
2022-12-07T15:35:03.025Z,6.15
2022-12-07T15:37:31.365Z,6.11
2022-12-07T15:40:04.074Z,6.07
2022-12-07T15:42:35.205Z,6.08
2022-12-07T15:45:06.131Z,6.03
2022-12-07T15:47:54.949Z,6.06
2022-12-07T15:50:26.746Z,6.06
2022-12-07T15:52:54.609Z,6.06
2022-12-07T15:55:22.758Z,6.02
2022-12-07T15:57:50.855Z,6.02
2022-12-07T16:00:20.414Z,6.04
2022-12-07T16:02:48.393Z,6.01
2022-12-07T16:05:16.592Z,6.03
2022-12-07T16:07:47.783Z,5.99
2022-12-07T16:10:16.260Z,5.96
2022-12-07T16:12:44.211Z,5.88
2022-12-07T16:15:12.559Z,5.89
2022-12-07T16:17:40.515Z,5.89
2022-12-07T16:20:10.014Z,5.88
2022-12-07T16:22:37.966Z,5.85
2022-12-07T16:25:08.073Z,5.80
2022-12-07T16:27:36.628Z,5.80
2022-12-07T16:30:05.496Z,5.76
2022-12-07T16:32:33.490Z,5.74
2022-12-07T16:35:02.211Z,5.73
2022-12-07T16:37:30.382Z,5.70
2022-12-07T16:39:58.579Z,5.70
2022-12-07T16:42:28.375Z,5.65
2022-12-07T16:44:56.565Z,5.63
2022-12-07T16:47:24.514Z,5.64
2022-12-07T16:49:53.002Z,5.65
2022-12-07T16:52:21.771Z,5.64
2022-12-07T16:54:50.933Z,5.64
2022-12-07T16:57:22.981Z,5.60
2022-12-07T16:59:53.522Z,5.59
2022-12-07T17:02:21.762Z,5.56
2022-12-07T17:04:50.082Z,5.55
2022-12-07T17:07:17.957Z,5.54
2022-12-07T17:09:47.136Z,5.54
2022-12-07T17:12:15.085Z,5.55
2022-12-07T17:15:01.432Z,5.54
2022-12-07T17:17:33.131Z,5.52
2022-12-07T17:20:01.374Z,5.52
2022-12-07T17:22:29.552Z,5.52
2022-12-07T17:24:57.886Z,5.53
2022-12-07T17:27:25.773Z,5.55
2022-12-07T17:29:54.254Z,5.59
2022-12-07T17:32:22.277Z,5.60
2022-12-07T17:34:51.761Z,5.57
2022-12-07T17:37:19.664Z,5.56
2022-12-07T17:39:47.764Z,5.53
2022-12-07T17:42:33.606Z,5.54
2022-12-07T17:45:02.168Z,5.46
2022-12-07T17:47:30.456Z,5.42
2022-12-07T17:50:05.075Z,5.44
2022-12-07T17:52:53.289Z,5.45
2022-12-07T17:55:21.452Z,5.47
2022-12-07T17:57:49.477Z,5.44
2022-12-07T18:00:18.630Z,5.49
2022-12-07T18:02:46.726Z,5.54
2022-12-07T18:05:16.303Z,5.62
2022-12-07T18:07:44.279Z,5.68
2022-12-07T18:10:12.684Z,5.74
2022-12-07T18:12:41.328Z,5.79
2022-12-07T18:15:10.329Z,5.82
2022-12-07T18:17:38.277Z,5.81
2022-12-07T18:20:08.141Z,5.81
2022-12-07T18:22:37.551Z,5.79
2022-12-07T18:25:06.654Z,5.78
2022-12-07T18:27:34.776Z,5.73
2022-12-07T18:30:03.224Z,5.72
2022-12-07T18:32:31.130Z,5.71
2022-12-07T18:34:59.736Z,5.69
2022-12-07T18:37:28.355Z,5.70
2022-12-07T18:39:59.198Z,5.61
2022-12-07T18:42:27.145Z,5.56
2022-12-07T18:44:55.292Z,5.53
2022-12-07T18:47:23.476Z,5.47
2022-12-07T18:49:52.061Z,5.47
2022-12-07T18:52:20.071Z,5.45
2022-12-07T18:54:48.429Z,5.47
2022-12-07T18:57:17.864Z,5.45
2022-12-07T18:59:49.664Z,5.49
2022-12-07T19:02:19.010Z,5.51
2022-12-07T19:04:47.516Z,5.54
2022-12-07T19:07:15.543Z,5.53
2022-12-07T19:09:43.751Z,5.54
2022-12-07T19:12:13.003Z,5.55
2022-12-07T19:14:42.785Z,5.53
2022-12-07T19:17:12.625Z,5.48
2022-12-07T19:19:42.687Z,5.48
2022-12-07T19:22:14.873Z,5.51
2022-12-07T19:24:46.276Z,5.50
2022-12-07T19:27:15.281Z,5.51
2022-12-07T19:29:45.038Z,5.49
2022-12-07T19:32:13.366Z,5.49
2022-12-07T19:34:43.114Z,5.46
2022-12-07T19:37:12.070Z,5.45
2022-12-07T19:39:41.167Z,5.40
2022-12-07T19:42:09.200Z,5.36
2022-12-07T19:44:37.530Z,5.37
2022-12-07T19:47:07.352Z,5.36
2022-12-07T19:49:36.888Z,5.34
2022-12-07T19:52:06.573Z,5.31
2022-12-07T19:54:36.347Z,5.24
2022-12-07T19:57:05.571Z,5.24
2022-12-07T19:59:34.109Z,5.21
2022-12-07T20:02:02.180Z,5.15
2022-12-07T20:04:35.333Z,5.13
2022-12-07T20:07:03.384Z,5.15
2022-12-07T20:09:31.532Z,5.14
2022-12-07T20:12:16.948Z,5.13
2022-12-07T20:14:45.243Z,5.05
2022-12-07T20:17:13.412Z,5.00
2022-12-07T20:19:43.227Z,4.97
2022-12-07T20:22:11.231Z,4.92
2022-12-07T20:24:39.548Z,4.84
2022-12-07T20:27:07.937Z,4.91
2022-12-07T20:29:36.217Z,4.89
2022-12-07T20:32:04.552Z,4.87
2022-12-07T20:34:32.827Z,4.90
2022-12-07T20:37:02.160Z,4.80
2022-12-07T20:39:30.775Z,4.82
2022-12-07T20:42:16.557Z,4.85
2022-12-07T20:44:44.883Z,4.88
2022-12-07T20:47:12.912Z,4.88
2022-12-07T20:49:41.564Z,4.88
2022-12-07T20:52:11.240Z,4.83
2022-12-07T20:54:39.470Z,4.86
2022-12-07T20:57:07.559Z,4.87
2022-12-07T20:59:41.232Z,4.90
2022-12-07T21:02:12.625Z,4.89
2022-12-07T21:04:41.522Z,4.91
2022-12-07T21:07:10.808Z,4.90
2022-12-07T21:09:39.264Z,4.97
2022-12-07T21:12:11.170Z,4.96
2022-12-07T21:14:42.419Z,4.96
2022-12-07T21:17:10.958Z,4.95
2022-12-07T21:19:39.376Z,4.97
2022-12-07T21:22:07.400Z,4.96
2022-12-07T21:24:38.868Z,4.92
2022-12-07T21:27:07.185Z,4.99
2022-12-07T21:29:43.891Z,4.99
2022-12-07T21:32:13.729Z,5.01
2022-12-07T21:34:42.041Z,5.01
2022-12-07T21:37:10.031Z,5.02
2022-12-07T21:39:39.575Z,4.99
2022-12-07T21:42:07.627Z,4.97
2022-12-07T21:44:35.877Z,4.99
2022-12-07T21:47:03.880Z,4.98
2022-12-07T21:49:35.297Z,4.95
2022-12-07T21:52:03.316Z,4.87
2022-12-07T21:54:31.591Z,4.87
2022-12-07T21:57:00.840Z,4.85
2022-12-07T21:59:29.129Z,4.74
2022-12-07T22:01:57.140Z,4.75
2022-12-07T22:04:26.931Z,4.74
2022-12-07T22:06:56.977Z,4.74
2022-12-07T22:09:27.518Z,4.71
2022-12-07T22:11:55.485Z,4.68
2022-12-07T22:14:42.848Z,4.74
2022-12-07T22:17:10.810Z,4.71
2022-12-07T22:19:38.942Z,4.71
2022-12-07T22:22:06.825Z,4.74
2022-12-07T22:24:35.151Z,4.75
2022-12-07T22:27:03.051Z,4.70
2022-12-07T22:29:32.701Z,4.73
2022-12-07T22:32:09.280Z,4.75
2022-12-07T22:34:46.924Z,4.77
2022-12-07T22:37:14.925Z,4.77
2022-12-07T22:39:43.059Z,4.78
2022-12-07T22:42:11.205Z,4.79
2022-12-07T22:44:43.030Z,4.80
2022-12-07T22:47:10.954Z,4.79
2022-12-07T22:49:39.224Z,4.75
2022-12-07T22:52:07.154Z,4.64
2022-12-07T22:54:35.767Z,4.66
2022-12-07T22:57:04.551Z,4.68
2022-12-07T22:59:32.900Z,4.65
2022-12-07T23:02:02.169Z,4.66
2022-12-07T23:04:30.454Z,4.59
2022-12-07T23:06:59.305Z,4.51
2022-12-07T23:09:27.605Z,4.43
2022-12-07T23:12:13.061Z,4.40
2022-12-07T23:14:41.255Z,4.31
2022-12-07T23:17:10.507Z,4.28
2022-12-07T23:19:38.706Z,4.25
2022-12-07T23:22:06.631Z,4.20
2022-12-07T23:24:34.834Z,4.21
2022-12-07T23:27:02.931Z,4.27
2022-12-07T23:29:31.068Z,4.22
2022-12-07T23:31:59.126Z,4.24
2022-12-07T23:34:28.785Z,4.24
2022-12-07T23:36:56.737Z,4.28
2022-12-07T23:39:24.870Z,4.25
2022-12-07T23:41:52.917Z,4.22
2022-12-07T23:44:21.085Z,4.22
2022-12-07T23:46:49.128Z,4.21
2022-12-07T23:49:18.482Z,4.20
2022-12-07T23:51:47.714Z,4.22
2022-12-07T23:54:15.890Z,4.28
2022-12-07T23:56:44.021Z,4.32
2022-12-07T23:59:12.837Z,4.29
